Orbital elements of FENGYUN 1C DEB
| Launched | 9 May 1999 |
| Flight ended | – |
| Launch site | Taiyuan Space Center, PRC |
| Owner | People's Republic of China |
| NORAD ID | 29836 |
| Date fetched |
Epoch osculation |
Inc. [°] |
Ecc. | RA asc node [hr] |
Arg Peri. [°] |
Mean anom [°] |
Mean motion [rev/day] |
Abs. mag |
| Date fetched |
Epoch osculation |
Inc. [°] |
Ecc. | RA asc node [hr] |
Arg Peri. [°] |
Mean anom [°] |
Mean motion [rev/day] |
Abs. mag |
| 2026 May 01 17:56 | 2026 Apr 29 05:37:06 | 98.1834 | 0.01543 | 14.4858 | 137.1587 | 253.7731 | 14.54805 | – |
| 2026 Apr 30 17:56 | 2026 Apr 29 05:37:06 | 98.1834 | 0.01543 | 14.4858 | 137.1587 | 253.7731 | 14.54805 | – |
| 2026 Apr 29 17:57 | 2026 Apr 24 05:15:26 | 98.1831 | 0.01540 | 14.1584 | 152.5868 | 253.7731 | 14.54805 | – |
| 2026 Apr 28 17:56 | 2026 Apr 24 05:15:26 | 98.1831 | 0.01540 | 14.1584 | 152.5868 | 253.7731 | 14.54805 | – |
| 2026 Apr 27 17:58 | 2026 Apr 24 05:15:26 | 98.1831 | 0.01540 | 14.1584 | 152.5868 | 253.7731 | 14.54805 | – |
| 2026 Apr 26 17:58 | 2026 Apr 24 05:15:26 | 98.1831 | 0.01540 | 14.1584 | 152.5868 | 253.7731 | 14.54805 | – |
| 2026 Apr 25 17:58 | 2026 Apr 24 05:15:26 | 98.1831 | 0.01540 | 14.1584 | 152.5868 | 253.7731 | 14.54805 | – |
| 2026 Apr 24 17:59 | 2026 Apr 24 05:15:26 | 98.1831 | 0.01540 | 14.1584 | 152.5868 | 253.7731 | 14.54805 | – |
| 2026 Apr 23 17:57 | 2026 Apr 19 12:48:18 | 98.1826 | 0.01538 | 13.8525 | 167.0134 | 253.7731 | 14.54805 | – |
| 2026 Apr 22 17:57 | 2026 Apr 19 12:48:18 | 98.1826 | 0.01538 | 13.8525 | 167.0134 | 253.7731 | 14.54805 | – |
| 2026 Apr 21 17:57 | 2026 Apr 19 12:48:18 | 98.1826 | 0.01538 | 13.8525 | 167.0134 | 253.7731 | 14.54805 | – |
| 2026 Apr 20 17:57 | 2026 Apr 19 12:48:18 | 98.1826 | 0.01538 | 13.8525 | 167.0134 | 253.7731 | 14.54805 | – |
| 2026 Apr 19 17:58 | 2026 Apr 19 12:48:18 | 98.1826 | 0.01538 | 13.8525 | 167.0134 | 253.7731 | 14.54805 | – |
| 2026 Apr 18 17:56 | 2026 Apr 13 04:59:58 | 98.1818 | 0.01534 | 13.4396 | 186.5543 | 253.7731 | 14.54805 | – |
| 2026 Apr 16 17:57 | 2026 Apr 13 04:59:58 | 98.1818 | 0.01534 | 13.4396 | 186.5543 | 253.7731 | 14.54805 | – |
| 2026 Apr 14 17:57 | 2026 Apr 13 04:59:58 | 98.1818 | 0.01534 | 13.4396 | 186.5543 | 253.7731 | 14.54805 | – |
| 2026 Apr 13 17:57 | 2026 Apr 13 04:59:58 | 98.1818 | 0.01534 | 13.4396 | 186.5543 | 253.7731 | 14.54805 | – |
| 2026 Apr 12 17:57 | 2026 Apr 08 06:05:50 | 98.1812 | 0.01531 | 13.1161 | 201.8728 | 253.7731 | 14.54805 | – |
| 2026 Apr 11 17:57 | 2026 Apr 08 06:05:50 | 98.1812 | 0.01531 | 13.1161 | 201.8728 | 253.7731 | 14.54805 | – |
| 2026 Apr 10 17:58 | 2026 Apr 08 06:05:50 | 98.1812 | 0.01531 | 13.1161 | 201.8728 | 253.7731 | 14.54805 | – |
| 2026 Apr 09 18:01 | 2026 Apr 08 06:05:50 | 98.1812 | 0.01531 | 13.1161 | 201.8728 | 253.7731 | 14.54805 | – |
| 2026 Apr 08 17:57 | 2026 Apr 08 06:05:50 | 98.1812 | 0.01531 | 13.1161 | 201.8728 | 253.7731 | 14.54805 | – |
| 2026 Apr 07 17:57 | 2026 Apr 02 05:01:48 | 98.1823 | 0.01528 | 12.7216 | 220.6534 | 253.7731 | 14.54805 | – |
| 2026 Apr 06 17:57 | 2026 Apr 02 05:01:48 | 98.1823 | 0.01528 | 12.7216 | 220.6534 | 253.7731 | 14.54805 | – |
| 2026 Apr 05 17:56 | 2026 Apr 02 05:01:48 | 98.1823 | 0.01528 | 12.7216 | 220.6534 | 253.7731 | 14.54805 | – |
| 2026 Apr 04 17:57 | 2026 Apr 02 05:01:48 | 98.1823 | 0.01528 | 12.7216 | 220.6534 | 253.7731 | 14.54805 | – |